sensor_id;sensor_type;location;lat;lon;timestamp;P1;durP1;ratioP1;P2;durP2;ratioP2
7154;SDS011;3619;53.784;10.440;2022-10-16T00:01:14;1.70;;;1.70;;
7154;SDS011;3619;53.784;10.440;2022-10-16T00:03:45;1.97;;;1.87;;
7154;SDS011;3619;53.784;10.440;2022-10-16T00:06:13;1.77;;;1.77;;
7154;SDS011;3619;53.784;10.440;2022-10-16T00:08:41;1.63;;;1.63;;
7154;SDS011;3619;53.784;10.440;2022-10-16T00:11:09;2.10;;;2.00;;
7154;SDS011;3619;53.784;10.440;2022-10-16T00:13:39;2.03;;;1.93;;
7154;SDS011;3619;53.784;10.440;2022-10-16T00:16:12;1.70;;;1.70;;
7154;SDS011;3619;53.784;10.440;2022-10-16T00:18:40;2.10;;;2.00;;
7154;SDS011;3619;53.784;10.440;2022-10-16T00:21:09;1.70;;;1.70;;
7154;SDS011;3619;53.784;10.440;2022-10-16T00:23:37;1.97;;;1.87;;
7154;SDS011;3619;53.784;10.440;2022-10-16T00:26:06;1.40;;;1.40;;
7154;SDS011;3619;53.784;10.440;2022-10-16T00:28:35;1.30;;;1.30;;
7154;SDS011;3619;53.784;10.440;2022-10-16T00:31:04;1.53;;;1.53;;
7154;SDS011;3619;53.784;10.440;2022-10-16T00:33:31;1.50;;;1.50;;
7154;SDS011;3619;53.784;10.440;2022-10-16T00:35:58;2.20;;;2.10;;
7154;SDS011;3619;53.784;10.440;2022-10-16T00:38:29;1.73;;;1.73;;
7154;SDS011;3619;53.784;10.440;2022-10-16T00:40:56;1.70;;;1.70;;
7154;SDS011;3619;53.784;10.440;2022-10-16T00:43:34;1.53;;;1.53;;
7154;SDS011;3619;53.784;10.440;2022-10-16T00:46:09;1.43;;;1.43;;
7154;SDS011;3619;53.784;10.440;2022-10-16T00:48:40;1.50;;;1.50;;
7154;SDS011;3619;53.784;10.440;2022-10-16T00:51:09;1.40;;;1.40;;
7154;SDS011;3619;53.784;10.440;2022-10-16T00:53:36;1.70;;;1.70;;
7154;SDS011;3619;53.784;10.440;2022-10-16T00:56:03;1.30;;;1.30;;
7154;SDS011;3619;53.784;10.440;2022-10-16T00:58:31;1.50;;;1.50;;
7154;SDS011;3619;53.784;10.440;2022-10-16T01:00:58;1.50;;;1.50;;
7154;SDS011;3619;53.784;10.440;2022-10-16T01:03:27;1.17;;;1.17;;
7154;SDS011;3619;53.784;10.440;2022-10-16T01:05:59;1.50;;;1.50;;
7154;SDS011;3619;53.784;10.440;2022-10-16T01:08:37;1.50;;;1.50;;
7154;SDS011;3619;53.784;10.440;2022-10-16T01:11:12;1.30;;;1.30;;
7154;SDS011;3619;53.784;10.440;2022-10-16T01:13:46;1.60;;;1.60;;
7154;SDS011;3619;53.784;10.440;2022-10-16T01:16:20;1.43;;;1.43;;
7154;SDS011;3619;53.784;10.440;2022-10-16T01:18:59;1.37;;;1.37;;
7154;SDS011;3619;53.784;10.440;2022-10-16T01:21:35;1.30;;;1.30;;
7154;SDS011;3619;53.784;10.440;2022-10-16T01:24:06;1.53;;;1.53;;
7154;SDS011;3619;53.784;10.440;2022-10-16T01:26:50;1.50;;;1.50;;
7154;SDS011;3619;53.784;10.440;2022-10-16T01:29:39;1.50;;;1.50;;
7154;SDS011;3619;53.784;10.440;2022-10-16T01:32:13;1.30;;;1.30;;
7154;SDS011;3619;53.784;10.440;2022-10-16T01:34:45;1.53;;;1.53;;
7154;SDS011;3619;53.784;10.440;2022-10-16T01:37:18;1.50;;;1.50;;
7154;SDS011;3619;53.784;10.440;2022-10-16T01:39:51;1.60;;;1.60;;
7154;SDS011;3619;53.784;10.440;2022-10-16T01:42:24;2.03;;;1.93;;
7154;SDS011;3619;53.784;10.440;2022-10-16T01:44:55;1.60;;;1.60;;
7154;SDS011;3619;53.784;10.440;2022-10-16T01:47:25;1.53;;;1.53;;
7154;SDS011;3619;53.784;10.440;2022-10-16T01:49:53;1.70;;;1.70;;
7154;SDS011;3619;53.784;10.440;2022-10-16T01:52:22;2.10;;;2.00;;
7154;SDS011;3619;53.784;10.440;2022-10-16T01:54:52;1.70;;;1.70;;
7154;SDS011;3619;53.784;10.440;2022-10-16T01:57:21;1.70;;;1.70;;
7154;SDS011;3619;53.784;10.440;2022-10-16T01:59:52;1.53;;;1.53;;
7154;SDS011;3619;53.784;10.440;2022-10-16T02:02:22;1.60;;;1.60;;
7154;SDS011;3619;53.784;10.440;2022-10-16T02:04:53;1.63;;;1.63;;
7154;SDS011;3619;53.784;10.440;2022-10-16T02:07:24;1.80;;;1.80;;
7154;SDS011;3619;53.784;10.440;2022-10-16T02:09:51;1.70;;;1.70;;
7154;SDS011;3619;53.784;10.440;2022-10-16T02:12:19;1.67;;;1.67;;
7154;SDS011;3619;53.784;10.440;2022-10-16T02:14:52;2.00;;;1.90;;
7154;SDS011;3619;53.784;10.440;2022-10-16T02:17:19;1.73;;;1.73;;
7154;SDS011;3619;53.784;10.440;2022-10-16T02:19:47;1.80;;;1.80;;
7154;SDS011;3619;53.784;10.440;2022-10-16T02:22:18;1.83;;;1.83;;
7154;SDS011;3619;53.784;10.440;2022-10-16T02:24:50;1.50;;;1.50;;
7154;SDS011;3619;53.784;10.440;2022-10-16T02:27:22;2.03;;;1.93;;
7154;SDS011;3619;53.784;10.440;2022-10-16T02:29:53;1.97;;;1.90;;
7154;SDS011;3619;53.784;10.440;2022-10-16T02:32:25;1.77;;;1.77;;
7154;SDS011;3619;53.784;10.440;2022-10-16T02:34:57;1.80;;;1.80;;
7154;SDS011;3619;53.784;10.440;2022-10-16T02:37:26;1.50;;;1.50;;
7154;SDS011;3619;53.784;10.440;2022-10-16T02:39:55;1.77;;;1.77;;
7154;SDS011;3619;53.784;10.440;2022-10-16T02:42:27;1.43;;;1.43;;
7154;SDS011;3619;53.784;10.440;2022-10-16T02:44:57;1.50;;;1.50;;
7154;SDS011;3619;53.784;10.440;2022-10-16T02:47:24;1.53;;;1.53;;
7154;SDS011;3619;53.784;10.440;2022-10-16T02:49:52;1.73;;;1.73;;
7154;SDS011;3619;53.784;10.440;2022-10-16T02:52:19;1.70;;;1.70;;
7154;SDS011;3619;53.784;10.440;2022-10-16T02:54:46;1.60;;;1.60;;
7154;SDS011;3619;53.784;10.440;2022-10-16T02:57:13;2.20;;;2.10;;
7154;SDS011;3619;53.784;10.440;2022-10-16T02:59:41;1.87;;;1.87;;
7154;SDS011;3619;53.784;10.440;2022-10-16T03:02:10;1.70;;;1.70;;
7154;SDS011;3619;53.784;10.440;2022-10-16T03:04:38;2.23;;;2.13;;
7154;SDS011;3619;53.784;10.440;2022-10-16T03:07:05;2.30;;;2.20;;
7154;SDS011;3619;53.784;10.440;2022-10-16T03:09:32;2.00;;;1.90;;
7154;SDS011;3619;53.784;10.440;2022-10-16T03:11:59;2.23;;;2.13;;
7154;SDS011;3619;53.784;10.440;2022-10-16T03:14:26;1.77;;;1.77;;
7154;SDS011;3619;53.784;10.440;2022-10-16T03:16:53;1.50;;;1.50;;
7154;SDS011;3619;53.784;10.440;2022-10-16T03:19:21;1.63;;;1.63;;
7154;SDS011;3619;53.784;10.440;2022-10-16T03:21:48;1.70;;;1.70;;
7154;SDS011;3619;53.784;10.440;2022-10-16T03:24:26;1.67;;;1.67;;
7154;SDS011;3619;53.784;10.440;2022-10-16T03:26:54;1.60;;;1.60;;
7154;SDS011;3619;53.784;10.440;2022-10-16T03:29:22;1.87;;;1.83;;
7154;SDS011;3619;53.784;10.440;2022-10-16T03:31:50;1.63;;;1.63;;
7154;SDS011;3619;53.784;10.440;2022-10-16T03:34:18;1.97;;;1.87;;
7154;SDS011;3619;53.784;10.440;2022-10-16T03:36:46;1.87;;;1.83;;
7154;SDS011;3619;53.784;10.440;2022-10-16T03:39:13;1.77;;;1.77;;
7154;SDS011;3619;53.784;10.440;2022-10-16T03:41:40;2.43;;;2.33;;
7154;SDS011;3619;53.784;10.440;2022-10-16T03:44:07;2.03;;;1.93;;
7154;SDS011;3619;53.784;10.440;2022-10-16T03:46:34;2.00;;;1.90;;
7154;SDS011;3619;53.784;10.440;2022-10-16T03:49:01;1.80;;;1.80;;
7154;SDS011;3619;53.784;10.440;2022-10-16T03:51:28;2.27;;;2.17;;
7154;SDS011;3619;53.784;10.440;2022-10-16T03:53:56;1.97;;;1.87;;
7154;SDS011;3619;53.784;10.440;2022-10-16T03:56:24;2.10;;;2.00;;
7154;SDS011;3619;53.784;10.440;2022-10-16T03:58:52;2.10;;;2.00;;
7154;SDS011;3619;53.784;10.440;2022-10-16T04:01:19;1.80;;;1.80;;
7154;SDS011;3619;53.784;10.440;2022-10-16T04:03:46;2.13;;;2.03;;
7154;SDS011;3619;53.784;10.440;2022-10-16T04:06:13;2.10;;;2.00;;
7154;SDS011;3619;53.784;10.440;2022-10-16T04:08:42;1.67;;;1.67;;
7154;SDS011;3619;53.784;10.440;2022-10-16T04:11:10;1.77;;;1.77;;
7154;SDS011;3619;53.784;10.440;2022-10-16T04:13:37;2.20;;;2.10;;
7154;SDS011;3619;53.784;10.440;2022-10-16T04:16:03;1.53;;;1.53;;
7154;SDS011;3619;53.784;10.440;2022-10-16T04:18:30;1.60;;;1.60;;
7154;SDS011;3619;53.784;10.440;2022-10-16T04:21:01;1.70;;;1.70;;
7154;SDS011;3619;53.784;10.440;2022-10-16T04:23:28;2.10;;;2.00;;
7154;SDS011;3619;53.784;10.440;2022-10-16T04:25:57;2.00;;;1.90;;
7154;SDS011;3619;53.784;10.440;2022-10-16T04:28:26;1.70;;;1.70;;
7154;SDS011;3619;53.784;10.440;2022-10-16T04:30:54;1.73;;;1.73;;
7154;SDS011;3619;53.784;10.440;2022-10-16T04:33:21;2.20;;;2.10;;
7154;SDS011;3619;53.784;10.440;2022-10-16T04:35:48;2.17;;;2.07;;
7154;SDS011;3619;53.784;10.440;2022-10-16T04:38:15;2.40;;;2.30;;
7154;SDS011;3619;53.784;10.440;2022-10-16T04:40:42;2.10;;;2.00;;
7154;SDS011;3619;53.784;10.440;2022-10-16T04:43:09;1.97;;;1.90;;
7154;SDS011;3619;53.784;10.440;2022-10-16T04:45:39;2.10;;;2.00;;
7154;SDS011;3619;53.784;10.440;2022-10-16T04:48:07;2.10;;;2.00;;
7154;SDS011;3619;53.784;10.440;2022-10-16T04:50:34;2.60;;;2.50;;
7154;SDS011;3619;53.784;10.440;2022-10-16T04:53:00;2.33;;;2.23;;
7154;SDS011;3619;53.784;10.440;2022-10-16T04:55:27;2.30;;;2.20;;
7154;SDS011;3619;53.784;10.440;2022-10-16T04:57:54;2.40;;;2.30;;
7154;SDS011;3619;53.784;10.440;2022-10-16T05:00:21;2.00;;;1.90;;
7154;SDS011;3619;53.784;10.440;2022-10-16T05:02:50;2.23;;;2.13;;
7154;SDS011;3619;53.784;10.440;2022-10-16T05:05:18;2.30;;;2.20;;
7154;SDS011;3619;53.784;10.440;2022-10-16T05:07:45;2.30;;;2.20;;
7154;SDS011;3619;53.784;10.440;2022-10-16T05:10:12;2.20;;;2.10;;
7154;SDS011;3619;53.784;10.440;2022-10-16T05:12:38;2.20;;;2.10;;
7154;SDS011;3619;53.784;10.440;2022-10-16T05:15:05;2.20;;;2.10;;
7154;SDS011;3619;53.784;10.440;2022-10-16T05:17:33;2.30;;;2.20;;
7154;SDS011;3619;53.784;10.440;2022-10-16T05:20:01;2.30;;;2.20;;
7154;SDS011;3619;53.784;10.440;2022-10-16T05:22:28;2.13;;;2.03;;
7154;SDS011;3619;53.784;10.440;2022-10-16T05:24:55;1.80;;;1.80;;
7154;SDS011;3619;53.784;10.440;2022-10-16T05:27:22;1.70;;;1.70;;
7154;SDS011;3619;53.784;10.440;2022-10-16T05:29:49;1.93;;;1.83;;
7154;SDS011;3619;53.784;10.440;2022-10-16T05:32:18;2.00;;;1.90;;
7154;SDS011;3619;53.784;10.440;2022-10-16T05:34:47;1.67;;;1.67;;
7154;SDS011;3619;53.784;10.440;2022-10-16T05:37:19;1.97;;;1.87;;
7154;SDS011;3619;53.784;10.440;2022-10-16T05:39:46;2.23;;;2.13;;
7154;SDS011;3619;53.784;10.440;2022-10-16T05:42:12;1.87;;;1.83;;
7154;SDS011;3619;53.784;10.440;2022-10-16T05:44:39;1.60;;;1.60;;
7154;SDS011;3619;53.784;10.440;2022-10-16T05:47:09;1.87;;;1.83;;
7154;SDS011;3619;53.784;10.440;2022-10-16T05:49:39;2.13;;;2.03;;
7154;SDS011;3619;53.784;10.440;2022-10-16T05:52:06;2.30;;;2.20;;
7154;SDS011;3619;53.784;10.440;2022-10-16T05:54:34;2.10;;;2.00;;
7154;SDS011;3619;53.784;10.440;2022-10-16T05:57:01;1.67;;;1.67;;
7154;SDS011;3619;53.784;10.440;2022-10-16T05:59:31;2.10;;;2.00;;
7154;SDS011;3619;53.784;10.440;2022-10-16T06:01:58;1.80;;;1.80;;
7154;SDS011;3619;53.784;10.440;2022-10-16T06:04:24;1.70;;;1.70;;
7154;SDS011;3619;53.784;10.440;2022-10-16T06:06:51;1.73;;;1.73;;
7154;SDS011;3619;53.784;10.440;2022-10-16T06:09:18;1.80;;;1.80;;
7154;SDS011;3619;53.784;10.440;2022-10-16T06:11:46;1.53;;;1.53;;
7154;SDS011;3619;53.784;10.440;2022-10-16T06:14:13;1.80;;;1.80;;
7154;SDS011;3619;53.784;10.440;2022-10-16T06:16:40;1.70;;;1.70;;
7154;SDS011;3619;53.784;10.440;2022-10-16T06:19:08;1.70;;;1.70;;
7154;SDS011;3619;53.784;10.440;2022-10-16T06:21:35;1.50;;;1.50;;
7154;SDS011;3619;53.784;10.440;2022-10-16T06:24:03;2.20;;;2.10;;
7154;SDS011;3619;53.784;10.440;2022-10-16T06:26:30;1.70;;;1.70;;
7154;SDS011;3619;53.784;10.440;2022-10-16T06:29:01;1.70;;;1.70;;
7154;SDS011;3619;53.784;10.440;2022-10-16T06:31:28;1.80;;;1.80;;
7154;SDS011;3619;53.784;10.440;2022-10-16T06:33:56;1.80;;;1.80;;
7154;SDS011;3619;53.784;10.440;2022-10-16T06:36:24;2.10;;;2.00;;
7154;SDS011;3619;53.784;10.440;2022-10-16T06:38:54;1.80;;;1.80;;
7154;SDS011;3619;53.784;10.440;2022-10-16T06:41:21;2.30;;;2.20;;
7154;SDS011;3619;53.784;10.440;2022-10-16T06:43:48;2.10;;;2.00;;
7154;SDS011;3619;53.784;10.440;2022-10-16T06:46:18;1.87;;;1.83;;
7154;SDS011;3619;53.784;10.440;2022-10-16T06:48:48;1.80;;;1.80;;
7154;SDS011;3619;53.784;10.440;2022-10-16T06:51:17;1.50;;;1.50;;
7154;SDS011;3619;53.784;10.440;2022-10-16T06:53:46;1.67;;;1.67;;
7154;SDS011;3619;53.784;10.440;2022-10-16T06:56:15;1.73;;;1.73;;
7154;SDS011;3619;53.784;10.440;2022-10-16T06:58:43;1.70;;;1.70;;
7154;SDS011;3619;53.784;10.440;2022-10-16T07:01:11;2.13;;;2.03;;
7154;SDS011;3619;53.784;10.440;2022-10-16T07:03:42;2.10;;;2.00;;
7154;SDS011;3619;53.784;10.440;2022-10-16T07:06:11;1.80;;;1.80;;
7154;SDS011;3619;53.784;10.440;2022-10-16T07:08:40;1.80;;;1.80;;
7154;SDS011;3619;53.784;10.440;2022-10-16T07:11:09;1.53;;;1.53;;
7154;SDS011;3619;53.784;10.440;2022-10-16T07:13:38;1.67;;;1.67;;
7154;SDS011;3619;53.784;10.440;2022-10-16T07:16:12;1.80;;;1.80;;
7154;SDS011;3619;53.784;10.440;2022-10-16T07:18:42;1.50;;;1.50;;
7154;SDS011;3619;53.784;10.440;2022-10-16T07:21:14;1.70;;;1.70;;
7154;SDS011;3619;53.784;10.440;2022-10-16T07:23:43;2.03;;;1.93;;
7154;SDS011;3619;53.784;10.440;2022-10-16T07:26:10;1.70;;;1.70;;
7154;SDS011;3619;53.784;10.440;2022-10-16T07:28:37;1.73;;;1.73;;
7154;SDS011;3619;53.784;10.440;2022-10-16T07:31:06;1.67;;;1.67;;
7154;SDS011;3619;53.784;10.440;2022-10-16T07:33:36;2.20;;;2.10;;
7154;SDS011;3619;53.784;10.440;2022-10-16T07:36:06;1.77;;;1.77;;
7154;SDS011;3619;53.784;10.440;2022-10-16T07:38:32;1.67;;;1.67;;
7154;SDS011;3619;53.784;10.440;2022-10-16T07:41:00;2.23;;;2.13;;
7154;SDS011;3619;53.784;10.440;2022-10-16T07:43:29;2.40;;;2.30;;
7154;SDS011;3619;53.784;10.440;2022-10-16T07:45:58;2.50;;;2.40;;
7154;SDS011;3619;53.784;10.440;2022-10-16T07:48:26;2.50;;;2.40;;
7154;SDS011;3619;53.784;10.440;2022-10-16T07:50:56;2.40;;;2.30;;
7154;SDS011;3619;53.784;10.440;2022-10-16T07:53:27;2.27;;;2.17;;
7154;SDS011;3619;53.784;10.440;2022-10-16T07:55:57;2.30;;;2.20;;
7154;SDS011;3619;53.784;10.440;2022-10-16T07:58:25;2.90;;;2.80;;
7154;SDS011;3619;53.784;10.440;2022-10-16T08:00:51;3.07;;;2.97;;
7154;SDS011;3619;53.784;10.440;2022-10-16T08:03:18;3.10;;;3.00;;
7154;SDS011;3619;53.784;10.440;2022-10-16T08:05:48;3.13;;;3.03;;
7154;SDS011;3619;53.784;10.440;2022-10-16T08:08:15;2.40;;;2.30;;
7154;SDS011;3619;53.784;10.440;2022-10-16T08:10:45;3.20;;;3.10;;
7154;SDS011;3619;53.784;10.440;2022-10-16T08:13:13;2.97;;;2.87;;
7154;SDS011;3619;53.784;10.440;2022-10-16T08:15:40;2.43;;;2.33;;
7154;SDS011;3619;53.784;10.440;2022-10-16T08:18:07;2.90;;;2.80;;
7154;SDS011;3619;53.784;10.440;2022-10-16T08:20:35;2.60;;;2.50;;
7154;SDS011;3619;53.784;10.440;2022-10-16T08:23:02;2.50;;;2.40;;
7154;SDS011;3619;53.784;10.440;2022-10-16T08:25:29;2.70;;;2.60;;
7154;SDS011;3619;53.784;10.440;2022-10-16T08:27:57;3.03;;;2.93;;
7154;SDS011;3619;53.784;10.440;2022-10-16T08:30:28;2.83;;;2.73;;
7154;SDS011;3619;53.784;10.440;2022-10-16T08:33:29;2.20;;;2.10;;
7154;SDS011;3619;53.784;10.440;2022-10-16T08:36:14;2.80;;;2.70;;
7154;SDS011;3619;53.784;10.440;2022-10-16T08:39:09;2.37;;;2.27;;
7154;SDS011;3619;53.784;10.440;2022-10-16T08:41:54;2.67;;;2.57;;
7154;SDS011;3619;53.784;10.440;2022-10-16T08:51:18;3.40;;;3.30;;
7154;SDS011;3619;53.784;10.440;2022-10-16T08:53:50;3.30;;;3.20;;
7154;SDS011;3619;53.784;10.440;2022-10-16T08:56:21;2.70;;;2.60;;
7154;SDS011;3619;53.784;10.440;2022-10-16T08:58:48;3.33;;;3.23;;
7154;SDS011;3619;53.784;10.440;2022-10-16T09:01:17;3.20;;;3.10;;
7154;SDS011;3619;53.784;10.440;2022-10-16T09:03:52;3.10;;;3.00;;
7154;SDS011;3619;53.784;10.440;2022-10-16T09:06:39;2.77;;;2.67;;
7154;SDS011;3619;53.784;10.440;2022-10-16T09:09:18;3.03;;;2.93;;
7154;SDS011;3619;53.784;10.440;2022-10-16T09:12:08;2.80;;;2.70;;
7154;SDS011;3619;53.784;10.440;2022-10-16T09:14:54;3.60;;;3.50;;
7154;SDS011;3619;53.784;10.440;2022-10-16T09:17:30;3.57;;;3.47;;
7154;SDS011;3619;53.784;10.440;2022-10-16T09:23:00;2.80;;;2.70;;
7154;SDS011;3619;53.784;10.440;2022-10-16T09:25:41;2.80;;;2.70;;
7154;SDS011;3619;53.784;10.440;2022-10-16T09:28:21;3.53;;;3.43;;
7154;SDS011;3619;53.784;10.440;2022-10-16T09:30:49;2.87;;;2.77;;
7154;SDS011;3619;53.784;10.440;2022-10-16T09:33:17;3.00;;;2.90;;
7154;SDS011;3619;53.784;10.440;2022-10-16T09:35:45;3.03;;;2.93;;
7154;SDS011;3619;53.784;10.440;2022-10-16T09:38:26;2.93;;;2.83;;
7154;SDS011;3619;53.784;10.440;2022-10-16T09:40:55;2.87;;;2.77;;
7154;SDS011;3619;53.784;10.440;2022-10-16T09:43:23;2.50;;;2.40;;
7154;SDS011;3619;53.784;10.440;2022-10-16T09:45:57;2.60;;;2.50;;
7154;SDS011;3619;53.784;10.440;2022-10-16T09:48:25;2.80;;;2.70;;
7154;SDS011;3619;53.784;10.440;2022-10-16T09:50:58;2.70;;;2.60;;
7154;SDS011;3619;53.784;10.440;2022-10-16T09:53:35;2.33;;;2.23;;
7154;SDS011;3619;53.784;10.440;2022-10-16T09:56:04;2.10;;;2.00;;
7154;SDS011;3619;53.784;10.440;2022-10-16T09:58:32;2.63;;;2.53;;
7154;SDS011;3619;53.784;10.440;2022-10-16T10:00:59;2.17;;;2.07;;
7154;SDS011;3619;53.784;10.440;2022-10-16T10:03:32;2.30;;;2.20;;
7154;SDS011;3619;53.784;10.440;2022-10-16T10:06:04;1.77;;;1.77;;
7154;SDS011;3619;53.784;10.440;2022-10-16T10:08:51;1.50;;;1.50;;
7154;SDS011;3619;53.784;10.440;2022-10-16T10:14:30;1.70;;;1.70;;
7154;SDS011;3619;53.784;10.440;2022-10-16T10:17:06;1.47;;;1.47;;
7154;SDS011;3619;53.784;10.440;2022-10-16T10:19:40;1.50;;;1.50;;
7154;SDS011;3619;53.784;10.440;2022-10-16T10:22:16;1.50;;;1.50;;
7154;SDS011;3619;53.784;10.440;2022-10-16T10:24:55;1.50;;;1.50;;
7154;SDS011;3619;53.784;10.440;2022-10-16T10:27:28;1.50;;;1.50;;
7154;SDS011;3619;53.784;10.440;2022-10-16T10:30:06;1.30;;;1.30;;
7154;SDS011;3619;53.784;10.440;2022-10-16T10:32:43;1.50;;;1.50;;
7154;SDS011;3619;53.784;10.440;2022-10-16T10:35:25;1.70;;;1.70;;
7154;SDS011;3619;53.784;10.440;2022-10-16T10:38:02;1.30;;;1.30;;
7154;SDS011;3619;53.784;10.440;2022-10-16T10:40:43;1.20;;;1.20;;
7154;SDS011;3619;53.784;10.440;2022-10-16T10:43:21;1.40;;;1.40;;
7154;SDS011;3619;53.784;10.440;2022-10-16T10:45:58;1.20;;;1.20;;
7154;SDS011;3619;53.784;10.440;2022-10-16T10:48:33;1.20;;;1.20;;
7154;SDS011;3619;53.784;10.440;2022-10-16T10:51:24;1.30;;;1.30;;
7154;SDS011;3619;53.784;10.440;2022-10-16T10:54:10;1.40;;;1.40;;
7154;SDS011;3619;53.784;10.440;2022-10-16T10:56:47;1.60;;;1.60;;
7154;SDS011;3619;53.784;10.440;2022-10-16T10:59:36;1.20;;;1.20;;
7154;SDS011;3619;53.784;10.440;2022-10-16T11:02:21;1.10;;;1.10;;
7154;SDS011;3619;53.784;10.440;2022-10-16T11:05:07;1.30;;;1.30;;
7154;SDS011;3619;53.784;10.440;2022-10-16T11:07:50;1.00;;;1.00;;
7154;SDS011;3619;53.784;10.440;2022-10-16T11:10:24;1.10;;;1.10;;
7154;SDS011;3619;53.784;10.440;2022-10-16T11:13:14;1.23;;;1.23;;
7154;SDS011;3619;53.784;10.440;2022-10-16T11:15:56;1.10;;;1.10;;
7154;SDS011;3619;53.784;10.440;2022-10-16T11:18:52;1.00;;;1.00;;
7154;SDS011;3619;53.784;10.440;2022-10-16T11:21:27;1.10;;;1.10;;
7154;SDS011;3619;53.784;10.440;2022-10-16T11:24:04;1.37;;;1.37;;
7154;SDS011;3619;53.784;10.440;2022-10-16T11:26:41;1.10;;;1.10;;
7154;SDS011;3619;53.784;10.440;2022-10-16T11:29:13;1.00;;;1.00;;
7154;SDS011;3619;53.784;10.440;2022-10-16T11:31:46;1.10;;;1.10;;
7154;SDS011;3619;53.784;10.440;2022-10-16T11:34:20;1.30;;;1.30;;
7154;SDS011;3619;53.784;10.440;2022-10-16T11:36:53;1.50;;;1.50;;
7154;SDS011;3619;53.784;10.440;2022-10-16T11:39:24;1.53;;;1.53;;
7154;SDS011;3619;53.784;10.440;2022-10-16T11:41:53;1.20;;;1.20;;
7154;SDS011;3619;53.784;10.440;2022-10-16T11:44:34;1.40;;;1.40;;
7154;SDS011;3619;53.784;10.440;2022-10-16T11:47:19;1.40;;;1.40;;
7154;SDS011;3619;53.784;10.440;2022-10-16T11:49:56;1.80;;;1.80;;
7154;SDS011;3619;53.784;10.440;2022-10-16T11:52:28;1.40;;;1.40;;
7154;SDS011;3619;53.784;10.440;2022-10-16T11:55:04;1.60;;;1.60;;
7154;SDS011;3619;53.784;10.440;2022-10-16T11:57:41;2.00;;;1.90;;
7154;SDS011;3619;53.784;10.440;2022-10-16T12:00:18;1.77;;;1.77;;
7154;SDS011;3619;53.784;10.440;2022-10-16T12:02:50;1.60;;;1.60;;
7154;SDS011;3619;53.784;10.440;2022-10-16T12:05:25;1.40;;;1.40;;
7154;SDS011;3619;53.784;10.440;2022-10-16T12:08:05;1.50;;;1.50;;
7154;SDS011;3619;53.784;10.440;2022-10-16T12:10:36;1.73;;;1.73;;
7154;SDS011;3619;53.784;10.440;2022-10-16T12:13:04;1.80;;;1.80;;
7154;SDS011;3619;53.784;10.440;2022-10-16T12:15:33;2.20;;;2.10;;
7154;SDS011;3619;53.784;10.440;2022-10-16T12:18:00;1.70;;;1.70;;
7154;SDS011;3619;53.784;10.440;2022-10-16T12:20:28;2.10;;;2.00;;
7154;SDS011;3619;53.784;10.440;2022-10-16T12:22:58;2.10;;;2.00;;
7154;SDS011;3619;53.784;10.440;2022-10-16T12:25:28;1.63;;;1.63;;
7154;SDS011;3619;53.784;10.440;2022-10-16T12:28:00;1.60;;;1.60;;
7154;SDS011;3619;53.784;10.440;2022-10-16T12:30:30;2.03;;;1.93;;
7154;SDS011;3619;53.784;10.440;2022-10-16T12:33:01;2.00;;;1.90;;
7154;SDS011;3619;53.784;10.440;2022-10-16T12:35:30;2.00;;;1.90;;
7154;SDS011;3619;53.784;10.440;2022-10-16T12:38:12;1.80;;;1.80;;
7154;SDS011;3619;53.784;10.440;2022-10-16T12:40:44;2.00;;;1.90;;
7154;SDS011;3619;53.784;10.440;2022-10-16T12:43:24;2.23;;;2.13;;
7154;SDS011;3619;53.784;10.440;2022-10-16T12:46:01;2.33;;;2.23;;
7154;SDS011;3619;53.784;10.440;2022-10-16T12:48:38;2.07;;;1.97;;
7154;SDS011;3619;53.784;10.440;2022-10-16T12:51:10;2.00;;;1.90;;
7154;SDS011;3619;53.784;10.440;2022-10-16T12:53:38;1.70;;;1.70;;
7154;SDS011;3619;53.784;10.440;2022-10-16T12:56:09;1.73;;;1.73;;
7154;SDS011;3619;53.784;10.440;2022-10-16T12:58:49;6.53;;;6.13;;
7154;SDS011;3619;53.784;10.440;2022-10-16T13:01:28;1.37;;;1.37;;
7154;SDS011;3619;53.784;10.440;2022-10-16T13:07:15;2.00;;;1.90;;
7154;SDS011;3619;53.784;10.440;2022-10-16T13:09:58;1.60;;;1.60;;
7154;SDS011;3619;53.784;10.440;2022-10-16T13:12:38;1.60;;;1.60;;
7154;SDS011;3619;53.784;10.440;2022-10-16T13:15:24;1.70;;;1.70;;
7154;SDS011;3619;53.784;10.440;2022-10-16T13:18:04;1.80;;;1.80;;
7154;SDS011;3619;53.784;10.440;2022-10-16T13:20:40;1.67;;;1.67;;
7154;SDS011;3619;53.784;10.440;2022-10-16T13:23:20;1.50;;;1.50;;
7154;SDS011;3619;53.784;10.440;2022-10-16T13:25:59;1.23;;;1.23;;
7154;SDS011;3619;53.784;10.440;2022-10-16T13:28:40;1.20;;;1.20;;
7154;SDS011;3619;53.784;10.440;2022-10-16T13:31:10;1.73;;;1.73;;
7154;SDS011;3619;53.784;10.440;2022-10-16T13:33:45;1.33;;;1.33;;
7154;SDS011;3619;53.784;10.440;2022-10-16T13:36:18;1.17;;;1.17;;
7154;SDS011;3619;53.784;10.440;2022-10-16T13:38:46;1.20;;;1.20;;
7154;SDS011;3619;53.784;10.440;2022-10-16T13:41:14;1.53;;;1.53;;
7154;SDS011;3619;53.784;10.440;2022-10-16T13:43:43;1.30;;;1.30;;
7154;SDS011;3619;53.784;10.440;2022-10-16T13:46:13;1.43;;;1.43;;
7154;SDS011;3619;53.784;10.440;2022-10-16T13:48:42;1.40;;;1.40;;
7154;SDS011;3619;53.784;10.440;2022-10-16T13:51:12;1.27;;;1.27;;
7154;SDS011;3619;53.784;10.440;2022-10-16T13:53:40;1.40;;;1.40;;
7154;SDS011;3619;53.784;10.440;2022-10-16T13:56:10;1.30;;;1.30;;
7154;SDS011;3619;53.784;10.440;2022-10-16T13:58:38;1.23;;;1.23;;
7154;SDS011;3619;53.784;10.440;2022-10-16T14:01:13;1.30;;;1.30;;
7154;SDS011;3619;53.784;10.440;2022-10-16T14:03:45;1.30;;;1.30;;
7154;SDS011;3619;53.784;10.440;2022-10-16T14:06:14;1.20;;;1.20;;
7154;SDS011;3619;53.784;10.440;2022-10-16T14:08:43;1.20;;;1.20;;
7154;SDS011;3619;53.784;10.440;2022-10-16T14:11:19;1.30;;;1.30;;
7154;SDS011;3619;53.784;10.440;2022-10-16T14:13:48;1.20;;;1.20;;
7154;SDS011;3619;53.784;10.440;2022-10-16T14:16:16;1.13;;;1.13;;
7154;SDS011;3619;53.784;10.440;2022-10-16T14:18:49;1.20;;;1.20;;
7154;SDS011;3619;53.784;10.440;2022-10-16T14:21:22;1.50;;;1.50;;
7154;SDS011;3619;53.784;10.440;2022-10-16T14:23:49;1.10;;;1.10;;
7154;SDS011;3619;53.784;10.440;2022-10-16T14:26:17;1.20;;;1.20;;
7154;SDS011;3619;53.784;10.440;2022-10-16T14:28:47;1.00;;;1.00;;
7154;SDS011;3619;53.784;10.440;2022-10-16T14:31:26;1.20;;;1.20;;
7154;SDS011;3619;53.784;10.440;2022-10-16T14:33:56;4.20;;;3.67;;
7154;SDS011;3619;53.784;10.440;2022-10-16T14:36:24;1.20;;;1.20;;
7154;SDS011;3619;53.784;10.440;2022-10-16T14:38:56;1.20;;;1.20;;
7154;SDS011;3619;53.784;10.440;2022-10-16T14:41:27;1.20;;;1.20;;
7154;SDS011;3619;53.784;10.440;2022-10-16T14:43:56;1.20;;;1.20;;
7154;SDS011;3619;53.784;10.440;2022-10-16T14:46:28;1.17;;;1.17;;
7154;SDS011;3619;53.784;10.440;2022-10-16T14:49:02;1.20;;;1.20;;
7154;SDS011;3619;53.784;10.440;2022-10-16T14:51:39;1.37;;;1.37;;
7154;SDS011;3619;53.784;10.440;2022-10-16T14:54:10;1.20;;;1.20;;
7154;SDS011;3619;53.784;10.440;2022-10-16T14:56:42;1.40;;;1.40;;
7154;SDS011;3619;53.784;10.440;2022-10-16T14:59:15;1.30;;;1.30;;
7154;SDS011;3619;53.784;10.440;2022-10-16T15:01:44;1.30;;;1.30;;
7154;SDS011;3619;53.784;10.440;2022-10-16T15:04:13;1.20;;;1.20;;
7154;SDS011;3619;53.784;10.440;2022-10-16T15:06:40;1.20;;;1.20;;
7154;SDS011;3619;53.784;10.440;2022-10-16T15:09:07;1.13;;;1.13;;
7154;SDS011;3619;53.784;10.440;2022-10-16T15:11:34;1.33;;;1.33;;
7154;SDS011;3619;53.784;10.440;2022-10-16T15:14:01;1.30;;;1.30;;
7154;SDS011;3619;53.784;10.440;2022-10-16T15:16:29;1.10;;;1.10;;
7154;SDS011;3619;53.784;10.440;2022-10-16T15:18:56;1.17;;;1.17;;
7154;SDS011;3619;53.784;10.440;2022-10-16T15:21:25;1.40;;;1.40;;
7154;SDS011;3619;53.784;10.440;2022-10-16T15:23:54;1.13;;;1.13;;
7154;SDS011;3619;53.784;10.440;2022-10-16T15:26:21;1.50;;;1.50;;
7154;SDS011;3619;53.784;10.440;2022-10-16T15:28:48;1.20;;;1.20;;
7154;SDS011;3619;53.784;10.440;2022-10-16T15:31:15;1.40;;;1.40;;
7154;SDS011;3619;53.784;10.440;2022-10-16T15:33:42;1.37;;;1.37;;
7154;SDS011;3619;53.784;10.440;2022-10-16T15:36:09;1.20;;;1.20;;
7154;SDS011;3619;53.784;10.440;2022-10-16T15:38:39;1.33;;;1.33;;
7154;SDS011;3619;53.784;10.440;2022-10-16T15:41:06;1.20;;;1.20;;